Time;durP1;ratioP1;P1;durP2;ratioP2;P2;SDS_P1;SDS_P2;PMS_P1;PMS_P2;Temp;Humidity;BMP_temperature;BMP_pressure;BME280_temperature;BME280_humidity;BME280_pressure;Samples;Min_cycle;Max_cycle;Signal;HPM_P1;HPM_P2
2021/10/19 00:00:15;;;;;;;13.77;5.90;;;;;;;;;;5951993;24;20030;-57
2021/10/19 00:02:42;;;;;;;14.35;5.53;;;;;;;;;;5949645;24;20184;-56
2021/10/19 00:05:10;;;;;;;9.98;5.03;;;;;;;;;;5962014;24;20045;-57
2021/10/19 00:07:37;;;;;;;12.23;6.03;;;;;;;;;;5972281;23;20029;-57
2021/10/19 00:10:03;;;;;;;12.88;5.65;;;;;;;;;;5953771;24;20189;-57
2021/10/19 00:12:30;;;;;;;15.13;5.57;;;;;;;;;;5980276;23;20038;-58
2021/10/19 00:14:56;;;;;;;11.00;5.40;;;;;;;;;;5978295;23;20045;-58
2021/10/19 00:17:27;;;;;;;11.07;5.55;;;;;;;;;;5963922;24;20034;-57
2021/10/19 00:19:54;;;;;;;12.73;6.03;;;;;;;;;;5978875;23;20042;-56
2021/10/19 00:22:20;;;;;;;10.68;5.80;;;;;;;;;;5975036;23;20034;-58
2021/10/19 00:24:47;;;;;;;17.15;6.70;;;;;;;;;;5947466;23;20139;-58
2021/10/19 00:27:15;;;;;;;16.20;6.30;;;;;;;;;;5992842;23;20034;-52
2021/10/19 00:29:41;;;;;;;15.53;6.83;;;;;;;;;;5975254;23;20112;-57
2021/10/19 00:32:08;;;;;;;12.70;7.03;;;;;;;;;;5979836;23;20080;-57
2021/10/19 00:34:35;;;;;;;13.48;6.78;;;;;;;;;;5977813;23;20065;-59
2021/10/19 00:37:04;;;;;;;18.57;7.67;;;;;;;;;;5989291;23;20045;-58
2021/10/19 00:39:31;;;;;;;15.13;7.00;;;;;;;;;;5962951;24;20040;-56
2021/10/19 00:41:57;;;;;;;12.35;5.78;;;;;;;;;;5990153;23;20026;-58
2021/10/19 00:44:24;;;;;;;12.90;6.10;;;;;;;;;;5974498;23;20068;-56
2021/10/19 00:46:54;;;;;;;14.32;6.35;;;;;;;;;;5963095;23;20038;-59
2021/10/19 00:49:20;;;;;;;14.23;6.05;;;;;;;;;;5960913;24;20026;-56
2021/10/19 00:51:48;;;;;;;13.60;6.22;;;;;;;;;;5966664;24;20026;-57
2021/10/19 00:54:15;;;;;;;16.37;6.03;;;;;;;;;;5962783;23;20022;-56
2021/10/19 00:56:42;;;;;;;12.15;6.15;;;;;;;;;;5971813;23;20053;-57
2021/10/19 00:59:08;;;;;;;13.15;6.10;;;;;;;;;;5968741;24;20034;-57
2021/10/19 01:01:35;;;;;;;13.13;6.13;;;;;;;;;;5963243;24;20029;-56
2021/10/19 01:04:02;;;;;;;14.18;6.35;;;;;;;;;;5994323;23;20038;-57
2021/10/19 01:06:29;;;;;;;12.57;5.05;;;;;;;;;;5986552;23;20141;-57
2021/10/19 01:08:57;;;;;;;15.57;5.90;;;;;;;;;;5976450;23;20033;-58
2021/10/19 01:11:24;;;;;;;18.65;6.10;;;;;;;;;;5984943;23;20048;-57
2021/10/19 01:13:50;;;;;;;13.25;6.63;;;;;;;;;;5964516;24;20046;-58
2021/10/19 01:16:23;;;;;;;14.55;6.60;;;;;;;;;;5973585;23;20045;-58
2021/10/19 01:18:49;;;;;;;18.13;7.10;;;;;;;;;;5969054;24;20088;-56
2021/10/19 01:21:17;;;;;;;14.50;7.07;;;;;;;;;;5961618;23;20046;-57
2021/10/19 01:23:44;;;;;;;10.87;5.93;;;;;;;;;;5967704;24;20077;-57
2021/10/19 01:26:11;;;;;;;19.25;7.10;;;;;;;;;;5990217;23;20064;-57
2021/10/19 01:28:39;;;;;;;13.90;7.13;;;;;;;;;;5969657;24;20034;-57
2021/10/19 01:31:06;;;;;;;15.70;7.22;;;;;;;;;;5986420;23;20033;-58
2021/10/19 01:33:33;;;;;;;14.98;7.40;;;;;;;;;;5969755;23;20029;-58
2021/10/19 01:36:00;;;;;;;13.00;7.15;;;;;;;;;;5966376;23;20132;-53
2021/10/19 01:38:29;;;;;;;13.43;7.05;;;;;;;;;;5971729;23;20026;-57
2021/10/19 01:40:56;;;;;;;15.23;7.60;;;;;;;;;;5971584;24;20062;-58
2021/10/19 01:43:23;;;;;;;20.20;7.10;;;;;;;;;;5971181;23;20038;-57
2021/10/19 01:45:51;;;;;;;13.82;7.32;;;;;;;;;;5968524;23;20118;-58
2021/10/19 01:48:18;;;;;;;22.17;7.07;;;;;;;;;;5963097;23;20038;-57
2021/10/19 01:50:44;;;;;;;15.00;7.35;;;;;;;;;;5972181;23;20034;-58
2021/10/19 01:53:11;;;;;;;12.73;6.53;;;;;;;;;;5983942;23;20018;-59
2021/10/19 01:55:40;;;;;;;14.80;7.03;;;;;;;;;;5961669;23;20041;-58
2021/10/19 01:58:09;;;;;;;15.27;7.15;;;;;;;;;;5987672;23;20144;-58
2021/10/19 02:00:36;;;;;;;14.00;6.80;;;;;;;;;;5965660;23;20029;-57
2021/10/19 02:03:03;;;;;;;14.02;7.10;;;;;;;;;;5950601;24;20093;-57
2021/10/19 02:05:30;;;;;;;12.93;6.68;;;;;;;;;;5941143;24;20037;-58
2021/10/19 02:07:58;;;;;;;13.30;6.75;;;;;;;;;;5966864;24;20058;-59
2021/10/19 02:10:24;;;;;;;14.13;7.03;;;;;;;;;;5994676;24;20038;-58
2021/10/19 02:12:52;;;;;;;14.20;6.70;;;;;;;;;;5963687;24;20268;-56
2021/10/19 02:15:21;;;;;;;12.15;5.97;;;;;;;;;;5969438;24;20034;-57
2021/10/19 02:17:48;;;;;;;12.25;6.38;;;;;;;;;;5966237;24;20088;-57
2021/10/19 02:20:14;;;;;;;13.25;6.05;;;;;;;;;;5992822;24;20038;-57
2021/10/19 02:22:41;;;;;;;12.30;5.53;;;;;;;;;;5954825;24;20035;-56
2021/10/19 02:25:08;;;;;;;12.32;6.03;;;;;;;;;;5970058;23;20038;-58
2021/10/19 02:27:35;;;;;;;13.27;5.82;;;;;;;;;;5971110;24;20068;-57
2021/10/19 02:30:03;;;;;;;11.55;5.63;;;;;;;;;;5979943;23;20071;-56
2021/10/19 02:32:30;;;;;;;13.93;6.03;;;;;;;;;;5968859;24;20055;-58
2021/10/19 02:34:56;;;;;;;10.75;4.90;;;;;;;;;;5966036;24;20124;-58
2021/10/19 02:37:23;;;;;;;12.93;6.00;;;;;;;;;;5970595;24;20049;-58
2021/10/19 02:39:49;;;;;;;11.15;5.53;;;;;;;;;;5965587;23;20030;-58
2021/10/19 02:42:16;;;;;;;11.45;5.60;;;;;;;;;;5967800;24;20050;-58
2021/10/19 02:44:42;;;;;;;12.25;5.70;;;;;;;;;;5966051;24;20034;-57
2021/10/19 02:47:11;;;;;;;11.88;5.57;;;;;;;;;;5969706;24;20033;-58
2021/10/19 02:49:37;;;;;;;12.85;5.95;;;;;;;;;;5962500;24;20034;-58
2021/10/19 02:52:04;;;;;;;11.77;5.93;;;;;;;;;;5964249;24;20142;-57
2021/10/19 02:54:30;;;;;;;12.38;5.97;;;;;;;;;;5962818;24;20031;-58
2021/10/19 02:56:57;;;;;;;13.10;5.07;;;;;;;;;;5992455;23;20046;-58
2021/10/19 02:59:23;;;;;;;14.05;5.45;;;;;;;;;;5965965;24;20040;-58
2021/10/19 03:01:50;;;;;;;9.63;5.20;;;;;;;;;;6016115;23;20104;-54
2021/10/19 03:04:18;;;;;;;10.93;5.05;;;;;;;;;;5991249;23;20049;-58
2021/10/19 03:06:45;;;;;;;10.53;5.60;;;;;;;;;;6017816;23;20089;-58
2021/10/19 03:09:11;;;;;;;12.48;5.35;;;;;;;;;;5969703;23;20276;-58
2021/10/19 03:11:38;;;;;;;10.13;5.05;;;;;;;;;;5993718;23;20110;-57
2021/10/19 03:14:04;;;;;;;10.73;5.18;;;;;;;;;;5970923;24;20161;-58
2021/10/19 03:16:31;;;;;;;11.23;6.22;;;;;;;;;;5964596;24;20114;-60
2021/10/19 03:18:58;;;;;;;12.73;5.65;;;;;;;;;;6015927;23;20150;-57
2021/10/19 03:21:26;;;;;;;13.70;6.25;;;;;;;;;;5990922;23;20037;-59
2021/10/19 03:23:52;;;;;;;10.10;5.10;;;;;;;;;;5968345;24;20143;-58
2021/10/19 03:26:20;;;;;;;10.38;5.25;;;;;;;;;;5965871;24;20279;-58
2021/10/19 03:28:48;;;;;;;8.48;4.72;;;;;;;;;;5991323;23;20107;-57
2021/10/19 03:31:15;;;;;;;;;;;;;;;;;;5983809;23;20061;-58
2021/10/19 03:33:41;;;;;;;9.23;4.15;;;;;;;;;;5991379;24;19970;-59
2021/10/19 03:36:09;;;;;;;10.52;4.80;;;;;;;;;;5967128;24;20092;-59
2021/10/19 03:38:37;;;;;;;10.10;4.80;;;;;;;;;;5969920;24;20040;-58
2021/10/19 03:41:03;;;;;;;12.35;5.30;;;;;;;;;;5964453;24;20037;-59
2021/10/19 03:43:30;;;;;;;12.20;5.13;;;;;;;;;;5996891;23;20026;-57
2021/10/19 03:45:57;;;;;;;12.85;5.68;;;;;;;;;;5970693;23;20053;-58
2021/10/19 03:48:23;;;;;;;12.88;4.72;;;;;;;;;;5969477;24;20061;-58
2021/10/19 03:50:50;;;;;;;10.77;5.20;;;;;;;;;;6015907;23;20057;-57
2021/10/19 03:53:16;;;;;;;11.55;4.97;;;;;;;;;;5965925;23;20034;-58
2021/10/19 03:55:46;;;;;;;10.98;4.78;;;;;;;;;;6016838;23;20093;-59
2021/10/19 03:58:13;;;;;;;11.95;5.07;;;;;;;;;;5990853;23;20046;-57
2021/10/19 04:00:39;;;;;;;10.50;5.63;;;;;;;;;;5968540;24;20093;-56
2021/10/19 04:03:06;;;;;;;10.05;4.75;;;;;;;;;;6001362;23;20033;-58
2021/10/19 04:05:32;;;;;;;12.13;5.30;;;;;;;;;;5968434;24;20038;-57
2021/10/19 04:07:59;;;;;;;11.20;6.00;;;;;;;;;;5975457;23;20058;-57
2021/10/19 04:10:25;;;;;;;16.15;6.78;;;;;;;;;;5986426;23;20050;-58
2021/10/19 04:12:54;;;;;;;13.57;6.30;;;;;;;;;;5938939;24;20104;-58
2021/10/19 04:15:20;;;;;;;12.00;6.20;;;;;;;;;;5965744;24;20045;-56
2021/10/19 04:17:47;;;;;;;17.90;6.53;;;;;;;;;;5968326;23;20085;-58
2021/10/19 04:20:14;;;;;;;13.15;6.68;;;;;;;;;;5963228;23;20034;-58
2021/10/19 04:22:40;;;;;;;15.25;6.65;;;;;;;;;;5962459;23;20054;-58
2021/10/19 04:25:07;;;;;;;11.70;6.15;;;;;;;;;;5940088;24;20041;-58
2021/10/19 04:27:34;;;;;;;12.23;6.43;;;;;;;;;;5939961;24;20042;-58
2021/10/19 04:30:02;;;;;;;13.05;5.57;;;;;;;;;;5940175;24;20058;-58
2021/10/19 04:32:29;;;;;;;9.70;5.60;;;;;;;;;;5966754;24;20042;-58
2021/10/19 04:34:55;;;;;;;11.60;6.30;;;;;;;;;;5941141;24;20030;-59
2021/10/19 04:37:22;;;;;;;12.38;5.68;;;;;;;;;;5964907;24;20144;-59
2021/10/19 04:39:48;;;;;;;10.82;5.70;;;;;;;;;;5963368;23;20034;-59
2021/10/19 04:42:15;;;;;;;16.10;5.85;;;;;;;;;;5921785;24;20042;-58
2021/10/19 04:44:42;;;;;;;12.82;6.13;;;;;;;;;;5928279;24;20034;-58
2021/10/19 04:47:11;;;;;;;12.20;5.68;;;;;;;;;;5939124;24;20046;-59
2021/10/19 04:49:38;;;;;;;13.70;5.55;;;;;;;;;;5933123;24;20099;-57
2021/10/19 04:52:05;;;;;;;10.80;5.15;;;;;;;;;;5940486;24;20043;-59
2021/10/19 04:54:31;;;;;;;12.40;5.43;;;;;;;;;;5935239;24;20035;-57
2021/10/19 04:56:58;;;;;;;10.70;5.05;;;;;;;;;;5961530;24;20102;-57
2021/10/19 04:59:25;;;;;;;10.88;5.53;;;;;;;;;;5957911;24;20046;-58
2021/10/19 05:01:51;;;;;;;9.77;5.32;;;;;;;;;;5962823;24;20103;-57
2021/10/19 05:04:19;;;;;;;18.98;6.20;;;;;;;;;;5956880;24;20045;-57
2021/10/19 05:06:46;;;;;;;12.43;5.97;;;;;;;;;;5968268;24;20025;-57
2021/10/19 05:09:12;;;;;;;15.77;6.05;;;;;;;;;;5990040;23;20127;-56
2021/10/19 05:11:39;;;;;;;13.45;7.43;;;;;;;;;;5940949;24;20027;-58
2021/10/19 05:14:05;;;;;;;12.15;6.18;;;;;;;;;;5941899;24;20043;-55
2021/10/19 05:16:38;;;;;;;11.70;6.05;;;;;;;;;;5963683;24;20113;-57
2021/10/19 05:19:05;;;;;;;16.02;6.68;;;;;;;;;;5941521;24;20101;-58
2021/10/19 05:21:32;;;;;;;12.85;6.72;;;;;;;;;;5934355;24;20065;-57
2021/10/19 05:23:59;;;;;;;14.97;7.77;;;;;;;;;;5936356;24;20050;-55
2021/10/19 05:26:26;;;;;;;17.83;7.78;;;;;;;;;;5933740;24;20034;-57
2021/10/19 05:28:54;;;;;;;12.38;7.05;;;;;;;;;;5937678;24;20042;-56
2021/10/19 05:31:20;;;;;;;12.68;6.63;;;;;;;;;;5935095;24;20031;-57
2021/10/19 05:33:47;;;;;;;15.80;7.05;;;;;;;;;;5938614;24;20023;-57
2021/10/19 05:36:14;;;;;;;14.80;6.07;;;;;;;;;;5933866;24;20031;-54
2021/10/19 05:38:43;;;;;;;14.77;6.33;;;;;;;;;;5935206;24;20031;-55
2021/10/19 05:41:09;;;;;;;16.25;8.13;;;;;;;;;;5919772;24;20101;-56
2021/10/19 05:43:36;;;;;;;10.35;6.03;;;;;;;;;;5930578;24;20035;-55
2021/10/19 05:46:03;;;;;;;12.90;5.97;;;;;;;;;;5924154;24;20050;-58
2021/10/19 05:48:29;;;;;;;9.82;5.65;;;;;;;;;;5934194;24;20062;-55
2021/10/19 05:50:57;;;;;;;10.85;5.65;;;;;;;;;;5953494;24;20043;-55
2021/10/19 05:53:23;;;;;;;12.85;6.68;;;;;;;;;;5934284;24;20047;-56
2021/10/19 05:55:51;;;;;;;9.60;5.53;;;;;;;;;;5935666;24;20038;-56
2021/10/19 05:58:18;;;;;;;11.07;5.43;;;;;;;;;;5956735;24;20113;-54
2021/10/19 06:00:44;;;;;;;16.20;7.45;;;;;;;;;;5940411;24;20098;-55
2021/10/19 06:03:10;;;;;;;11.73;6.18;;;;;;;;;;5924505;24;20034;-56
2021/10/19 06:05:37;;;;;;;13.85;6.43;;;;;;;;;;5941874;24;20121;-55
2021/10/19 06:08:04;;;;;;;14.05;6.40;;;;;;;;;;5938844;24;20289;-56
2021/10/19 06:10:31;;;;;;;10.55;6.15;;;;;;;;;;5941250;24;20105;-56
2021/10/19 06:12:59;;;;;;;10.38;6.25;;;;;;;;;;5941167;24;20058;-53
2021/10/19 06:15:26;;;;;;;9.77;5.37;;;;;;;;;;5967509;24;20026;-56
2021/10/19 06:17:53;;;;;;;11.55;5.70;;;;;;;;;;5939929;24;20042;-56
2021/10/19 06:20:20;;;;;;;11.07;5.57;;;;;;;;;;5941698;24;20120;-55
2021/10/19 06:22:47;;;;;;;9.10;5.72;;;;;;;;;;5937934;24;20058;-55
2021/10/19 06:25:13;;;;;;;11.23;5.88;;;;;;;;;;5967107;24;20070;-54
2021/10/19 06:27:40;;;;;;;11.10;6.03;;;;;;;;;;5963962;24;20042;-57
2021/10/19 06:30:10;;;;;;;11.57;6.40;;;;;;;;;;5941563;24;20058;-57
2021/10/19 06:32:37;;;;;;;9.90;5.53;;;;;;;;;;5939117;24;20057;-54
2021/10/19 06:35:04;;;;;;;10.90;5.73;;;;;;;;;;5939733;24;20117;-56
2021/10/19 06:37:31;;;;;;;13.35;6.80;;;;;;;;;;5942713;24;20030;-53
2021/10/19 06:39:58;;;;;;;12.27;6.32;;;;;;;;;;5965694;23;20050;-55
2021/10/19 06:42:24;;;;;;;12.60;6.95;;;;;;;;;;5966378;24;20149;-57
2021/10/19 06:44:51;;;;;;;11.38;6.25;;;;;;;;;;5933939;24;20067;-57
2021/10/19 06:47:21;;;;;;;11.68;6.35;;;;;;;;;;5914980;24;20055;-58
2021/10/19 06:49:47;;;;;;;12.75;6.72;;;;;;;;;;5958888;23;20042;-54
2021/10/19 06:52:14;;;;;;;14.20;7.15;;;;;;;;;;5943034;24;20027;-56
2021/10/19 06:54:40;;;;;;;10.40;6.50;;;;;;;;;;5939333;24;20030;-55
2021/10/19 06:57:07;;;;;;;13.35;6.63;;;;;;;;;;5942975;24;20077;-56
2021/10/19 06:59:34;;;;;;;12.70;6.65;;;;;;;;;;5937613;24;20062;-59
2021/10/19 07:02:00;;;;;;;13.48;6.65;;;;;;;;;;5939612;24;20117;-57
2021/10/19 07:04:28;;;;;;;11.52;6.80;;;;;;;;;;5957501;24;20042;-57
2021/10/19 07:06:55;;;;;;;12.15;6.85;;;;;;;;;;5966747;23;20033;-58
2021/10/19 07:09:22;;;;;;;11.55;5.95;;;;;;;;;;5961557;24;20124;-56
2021/10/19 07:11:48;;;;;;;11.45;6.93;;;;;;;;;;5968297;24;20034;-55
2021/10/19 07:14:15;;;;;;;11.15;6.07;;;;;;;;;;5991465;23;20060;-55
2021/10/19 07:16:43;;;;;;;10.13;5.65;;;;;;;;;;5969571;24;20104;-57
2021/10/19 07:19:09;;;;;;;13.40;5.93;;;;;;;;;;5990548;23;20133;-55
2021/10/19 07:21:38;;;;;;;10.40;5.90;;;;;;;;;;5990881;23;20029;-56
2021/10/19 07:24:05;;;;;;;11.50;5.50;;;;;;;;;;5966879;24;20030;-57
2021/10/19 07:26:33;;;;;;;11.60;6.75;;;;;;;;;;5962776;23;20040;-54
2021/10/19 07:28:59;;;;;;;11.77;6.53;;;;;;;;;;5963647;24;20030;-56
2021/10/19 07:31:25;;;;;;;11.20;5.97;;;;;;;;;;5960722;24;20035;-58
2021/10/19 07:33:52;;;;;;;11.65;6.20;;;;;;;;;;5965464;24;20034;-58
2021/10/19 07:36:19;;;;;;;11.48;6.25;;;;;;;;;;5946763;24;20065;-58
2021/10/19 07:38:49;;;;;;;12.05;6.60;;;;;;;;;;5967094;24;20038;-58
2021/10/19 07:41:19;;;;;;;12.02;6.05;;;;;;;;;;5954299;24;20026;-55
2021/10/19 07:43:45;;;;;;;11.80;5.88;;;;;;;;;;5945611;24;20026;-58
2021/10/19 07:46:18;;;;;;;13.30;5.68;;;;;;;;;;5957796;24;20034;-55
2021/10/19 07:48:44;;;;;;;12.57;6.03;;;;;;;;;;5965802;24;20089;-58
2021/10/19 07:51:11;;;;;;;11.18;5.95;;;;;;;;;;5945958;24;20026;-58
2021/10/19 07:53:37;;;;;;;9.45;5.15;;;;;;;;;;5965790;23;20030;-57
2021/10/19 07:56:05;;;;;;;9.57;5.38;;;;;;;;;;6010717;23;20074;-57
2021/10/19 07:58:32;;;;;;;12.70;5.28;;;;;;;;;;5967891;23;20048;-58
2021/10/19 08:00:58;;;;;;;8.07;4.68;;;;;;;;;;6013460;23;20080;-58
2021/10/19 08:03:25;;;;;;;12.23;5.30;;;;;;;;;;5969939;23;20038;-53
2021/10/19 08:05:51;;;;;;;8.15;4.57;;;;;;;;;;6014162;23;20042;-58
2021/10/19 08:08:20;;;;;;;9.48;4.68;;;;;;;;;;5991284;23;20065;-58
2021/10/19 08:10:47;;;;;;;10.38;4.55;;;;;;;;;;5968682;24;20030;-58
2021/10/19 08:13:17;;;;;;;10.55;5.22;;;;;;;;;;5961837;24;20054;-56
2021/10/19 08:15:44;;;;;;;9.13;5.13;;;;;;;;;;5965965;24;20022;-56
2021/10/19 08:18:11;;;;;;;9.38;4.78;;;;;;;;;;5961645;24;20033;-59
2021/10/19 08:20:38;;;;;;;8.65;4.85;;;;;;;;;;5967089;24;20045;-58
2021/10/19 08:23:05;;;;;;;9.80;4.78;;;;;;;;;;5966467;24;20029;-59
2021/10/19 08:25:32;;;;;;;8.85;4.50;;;;;;;;;;5970702;24;20046;-55
2021/10/19 08:28:00;;;;;;;7.78;4.35;;;;;;;;;;5976893;23;20042;-56
2021/10/19 08:30:28;;;;;;;7.55;4.30;;;;;;;;;;5962766;24;20030;-56
2021/10/19 08:32:56;;;;;;;8.07;4.15;;;;;;;;;;5961272;24;20113;-55
2021/10/19 08:35:23;;;;;;;7.93;3.90;;;;;;;;;;5943551;24;20057;-57
2021/10/19 08:37:50;;;;;;;6.85;3.95;;;;;;;;;;5966289;24;20041;-57
2021/10/19 08:40:17;;;;;;;6.70;3.90;;;;;;;;;;5967875;24;20025;-57
2021/10/19 08:42:45;;;;;;;9.15;3.88;;;;;;;;;;5997135;23;20046;-55
2021/10/19 08:45:12;;;;;;;9.55;4.60;;;;;;;;;;5969867;24;20049;-57
2021/10/19 08:47:48;;;;;;;6.53;3.88;;;;;;;;;;5967087;23;20037;-58
2021/10/19 08:50:15;;;;;;;8.20;4.30;;;;;;;;;;5969427;24;20093;-57
2021/10/19 08:52:42;;;;;;;7.55;4.30;;;;;;;;;;5969803;24;20041;-53
2021/10/19 08:55:09;;;;;;;9.07;4.30;;;;;;;;;;5959963;23;20042;-57
2021/10/19 08:57:37;;;;;;;6.53;4.03;;;;;;;;;;5964219;24;20045;-55
2021/10/19 09:00:04;;;;;;;6.97;4.13;;;;;;;;;;5986349;23;20033;-57
2021/10/19 09:02:37;;;;;;;7.68;4.00;;;;;;;;;;5967345;24;20068;-57
2021/10/19 09:05:06;;;;;;;8.27;3.95;;;;;;;;;;5994736;23;20038;-56
2021/10/19 09:07:33;;;;;;;8.70;3.80;;;;;;;;;;5969707;24;20030;-56
2021/10/19 09:09:59;;;;;;;7.22;3.72;;;;;;;;;;5964861;24;20042;-57
2021/10/19 09:12:26;;;;;;;8.10;3.42;;;;;;;;;;5998842;23;20034;-56
2021/10/19 09:14:52;;;;;;;6.88;3.50;;;;;;;;;;5968258;24;20042;-56
2021/10/19 09:17:21;;;;;;;9.15;4.18;;;;;;;;;;6014579;23;20030;-56
2021/10/19 09:19:49;;;;;;;7.18;3.50;;;;;;;;;;5966528;23;20046;-57
2021/10/19 09:22:18;;;;;;;9.43;3.40;;;;;;;;;;5965643;24;20052;-54
2021/10/19 09:24:44;;;;;;;7.93;3.50;;;;;;;;;;5970063;24;20030;-56
2021/10/19 09:27:14;;;;;;;5.20;2.90;;;;;;;;;;5971485;24;20045;-55
2021/10/19 09:29:42;;;;;;;7.85;3.17;;;;;;;;;;5987983;23;20032;-56
2021/10/19 09:32:09;;;;;;;4.67;2.50;;;;;;;;;;5970394;24;20128;-57
2021/10/19 09:34:37;;;;;;;6.18;2.88;;;;;;;;;;5967214;23;20279;-57
2021/10/19 09:37:09;;;;;;;6.63;2.83;;;;;;;;;;5968394;23;20026;-58
2021/10/19 09:39:38;;;;;;;5.07;2.88;;;;;;;;;;6016729;23;20048;-56
2021/10/19 09:42:06;;;;;;;5.15;2.88;;;;;;;;;;5964284;24;20041;-57
2021/10/19 09:44:32;;;;;;;5.70;2.22;;;;;;;;;;5942888;24;20038;-57
2021/10/19 09:47:01;;;;;;;4.57;2.08;;;;;;;;;;5952970;23;20028;-56
2021/10/19 09:49:28;;;;;;;4.53;2.22;;;;;;;;;;6007361;23;20046;-56
2021/10/19 09:51:56;;;;;;;4.30;2.08;;;;;;;;;;5961002;24;20042;-58
2021/10/19 09:54:26;;;;;;;4.10;2.20;;;;;;;;;;5964745;24;20030;-58
2021/10/19 09:56:56;;;;;;;4.68;2.17;;;;;;;;;;5966935;23;20033;-56
2021/10/19 09:59:22;;;;;;;3.88;2.20;;;;;;;;;;6015208;23;20037;-58
2021/10/19 10:01:50;;;;;;;3.95;2.17;;;;;;;;;;5966182;24;20112;-58
2021/10/19 10:04:16;;;;;;;6.88;2.40;;;;;;;;;;5970179;24;20053;-55
2021/10/19 10:06:43;;;;;;;6.32;2.80;;;;;;;;;;5977019;23;20077;-57
2021/10/19 10:09:10;;;;;;;3.83;2.00;;;;;;;;;;5997876;23;20029;-60
2021/10/19 10:11:39;;;;;;;4.93;2.67;;;;;;;;;;5985066;23;20038;-58
2021/10/19 10:14:07;;;;;;;4.65;2.47;;;;;;;;;;5970803;24;20053;-59
2021/10/19 10:16:42;;;;;;;4.83;2.67;;;;;;;;;;5967567;24;20086;-60
2021/10/19 10:19:11;;;;;;;7.13;2.90;;;;;;;;;;5969520;24;20402;-60
2021/10/19 10:21:44;;;;;;;6.22;3.20;;;;;;;;;;5966738;24;20046;-60
2021/10/19 10:24:11;;;;;;;7.00;3.20;;;;;;;;;;5968145;24;20034;-60
2021/10/19 10:26:39;;;;;;;7.07;3.38;;;;;;;;;;6013619;23;20049;-60
2021/10/19 10:29:08;;;;;;;8.88;3.38;;;;;;;;;;5994681;23;20034;-60
2021/10/19 10:31:34;;;;;;;;;;;;;;;;;;5970075;24;20053;-59
2021/10/19 10:34:05;;;;;;;10.00;4.32;;;;;;;;;;5965476;24;20120;-57
2021/10/19 10:36:39;;;;;;;8.13;3.90;;;;;;;;;;5966954;24;20054;-55
2021/10/19 10:39:08;;;;;;;9.98;4.65;;;;;;;;;;5966934;23;20038;-55
2021/10/19 10:41:38;;;;;;;10.73;4.90;;;;;;;;;;5968572;23;20086;-53
2021/10/19 10:44:05;;;;;;;10.30;4.47;;;;;;;;;;5995288;23;20045;-57
2021/10/19 10:46:34;;;;;;;9.15;4.45;;;;;;;;;;5970912;24;20033;-56
2021/10/19 10:49:00;;;;;;;10.27;4.70;;;;;;;;;;5964896;24;20049;-57
2021/10/19 10:51:27;;;;;;;10.93;4.57;;;;;;;;;;5969367;24;20042;-58
2021/10/19 10:53:54;;;;;;;9.55;5.50;;;;;;;;;;5992137;23;20042;-58
2021/10/19 10:56:26;;;;;;;12.65;5.65;;;;;;;;;;5996144;23;20040;-57
2021/10/19 10:58:53;;;;;;;10.05;5.03;;;;;;;;;;5990839;23;20038;-57
2021/10/19 11:01:21;;;;;;;10.40;5.25;;;;;;;;;;5969418;23;20026;-57
2021/10/19 11:03:50;;;;;;;11.45;4.88;;;;;;;;;;6005959;23;20055;-58
2021/10/19 11:06:17;;;;;;;8.85;4.57;;;;;;;;;;5993057;23;20040;-57
2021/10/19 11:08:45;;;;;;;9.63;4.97;;;;;;;;;;5984592;23;20034;-60
2021/10/19 11:11:13;;;;;;;10.02;5.07;;;;;;;;;;5963683;24;20038;-58
2021/10/19 11:13:48;;;;;;;12.48;5.15;;;;;;;;;;5944400;24;20029;-57
2021/10/19 11:16:15;;;;;;;13.25;4.63;;;;;;;;;;5946882;24;20059;-59
2021/10/19 11:18:41;;;;;;;9.57;5.00;;;;;;;;;;6013730;23;20034;-58
2021/10/19 11:21:09;;;;;;;12.02;5.00;;;;;;;;;;5971380;24;20026;-58
2021/10/19 11:23:39;;;;;;;14.90;4.93;;;;;;;;;;5968596;24;20033;-54
2021/10/19 11:26:09;;;;;;;13.25;5.65;;;;;;;;;;5993855;23;20022;-57
2021/10/19 11:28:36;;;;;;;10.77;5.38;;;;;;;;;;5993615;23;20033;-60
2021/10/19 11:31:02;;;;;;;15.05;6.13;;;;;;;;;;5991136;23;20041;-57
2021/10/19 11:33:29;;;;;;;14.77;6.72;;;;;;;;;;5992556;23;20125;-58
2021/10/19 11:35:56;;;;;;;10.90;6.43;;;;;;;;;;5993877;23;20120;-58
2021/10/19 11:38:24;;;;;;;16.63;6.60;;;;;;;;;;5967907;24;20070;-57
2021/10/19 11:40:50;;;;;;;10.65;6.35;;;;;;;;;;5959026;24;20026;-59
2021/10/19 11:43:19;;;;;;;16.63;7.15;;;;;;;;;;5963926;24;20049;-57
2021/10/19 11:45:46;;;;;;;16.70;7.10;;;;;;;;;;5963581;23;20103;-57
2021/10/19 11:48:13;;;;;;;12.70;6.88;;;;;;;;;;5991361;23;20029;-57
2021/10/19 11:50:40;;;;;;;15.60;6.85;;;;;;;;;;5991077;23;20066;-58
2021/10/19 11:53:09;;;;;;;13.88;7.47;;;;;;;;;;5992643;23;20038;-55
2021/10/19 11:55:37;;;;;;;12.88;6.65;;;;;;;;;;5966992;24;20120;-58
2021/10/19 11:58:04;;;;;;;19.45;7.38;;;;;;;;;;5969001;24;20018;-56
2021/10/19 12:00:32;;;;;;;12.27;6.95;;;;;;;;;;5989846;23;20041;-55
2021/10/19 12:02:59;;;;;;;13.60;7.53;;;;;;;;;;5969352;24;20124;-58
2021/10/19 12:05:27;;;;;;;19.20;7.43;;;;;;;;;;5964966;23;20022;-57
2021/10/19 12:07:56;;;;;;;15.50;6.85;;;;;;;;;;5969949;24;20033;-57
2021/10/19 12:10:23;;;;;;;16.60;7.22;;;;;;;;;;5994905;23;20062;-56
2021/10/19 12:12:59;;;;;;;15.13;7.82;;;;;;;;;;5964712;23;20038;-58
2021/10/19 12:15:26;;;;;;;16.60;7.63;;;;;;;;;;5968318;24;20038;-57
2021/10/19 12:17:57;;;;;;;16.17;7.53;;;;;;;;;;5965241;23;20113;-57
2021/10/19 12:20:25;;;;;;;19.10;7.78;;;;;;;;;;5968197;24;20038;-59
2021/10/19 12:22:57;;;;;;;16.65;7.95;;;;;;;;;;5946719;24;20042;-59
2021/10/19 12:25:23;;;;;;;14.32;7.72;;;;;;;;;;5941923;24;20034;-57
2021/10/19 12:27:59;;;;;;;19.83;7.40;;;;;;;;;;5984555;23;20035;-57
2021/10/19 12:30:25;;;;;;;16.85;7.80;;;;;;;;;;5990679;23;20040;-57
2021/10/19 12:32:54;;;;;;;19.73;8.13;;;;;;;;;;5965785;24;20049;-56
2021/10/19 12:35:20;;;;;;;18.70;7.22;;;;;;;;;;5968352;24;20116;-57
2021/10/19 12:37:52;;;;;;;17.52;7.30;;;;;;;;;;5966584;23;20038;-57
2021/10/19 12:40:21;;;;;;;17.98;7.80;;;;;;;;;;5969089;24;20096;-57
2021/10/19 12:42:48;;;;;;;14.82;7.70;;;;;;;;;;5963995;24;20049;-57
2021/10/19 12:45:15;;;;;;;17.85;7.63;;;;;;;;;;5992406;24;20034;-57
2021/10/19 12:47:43;;;;;;;17.17;8.52;;;;;;;;;;5960921;24;20034;-57
2021/10/19 12:50:09;;;;;;;18.13;8.60;;;;;;;;;;5959519;24;20022;-58
2021/10/19 12:52:37;;;;;;;16.33;8.75;;;;;;;;;;5961135;24;20041;-58
2021/10/19 12:55:04;;;;;;;20.05;9.02;;;;;;;;;;5940343;24;20039;-57
2021/10/19 12:57:31;;;;;;;16.77;9.40;;;;;;;;;;5942618;23;20081;-57
2021/10/19 12:59:58;;;;;;;19.27;9.65;;;;;;;;;;5970032;24;20170;-58
2021/10/19 13:02:26;;;;;;;17.83;10.00;;;;;;;;;;5997418;23;20088;-58
2021/10/19 13:04:54;;;;;;;25.13;9.60;;;;;;;;;;5964223;24;20112;-57
2021/10/19 13:07:21;;;;;;;20.98;9.35;;;;;;;;;;5970521;24;20030;-56
2021/10/19 13:09:47;;;;;;;15.25;8.38;;;;;;;;;;5969454;23;20034;-56
2021/10/19 13:12:13;;;;;;;19.10;8.52;;;;;;;;;;6004035;23;20112;-57
2021/10/19 13:14:40;;;;;;;16.23;8.55;;;;;;;;;;5975909;23;20142;-57
2021/10/19 13:17:07;;;;;;;20.48;8.35;;;;;;;;;;5995031;23;20165;-57
2021/10/19 13:19:35;;;;;;;17.30;9.38;;;;;;;;;;5964371;24;20045;-57
2021/10/19 13:22:01;;;;;;;18.73;8.90;;;;;;;;;;5971428;23;20107;-57
2021/10/19 13:24:28;;;;;;;16.02;8.57;;;;;;;;;;5961428;24;20038;-55
2021/10/19 13:26:56;;;;;;;17.90;9.18;;;;;;;;;;5970184;24;20033;-57
2021/10/19 13:29:24;;;;;;;16.20;9.50;;;;;;;;;;5965979;24;20041;-57
2021/10/19 13:31:51;;;;;;;20.63;10.05;;;;;;;;;;5965776;24;20038;-56
2021/10/19 13:34:17;;;;;;;21.08;10.02;;;;;;;;;;5959472;24;20278;-57
2021/10/19 13:36:47;;;;;;;19.95;10.10;;;;;;;;;;5963759;24;20102;-56
2021/10/19 13:39:13;;;;;;;18.00;9.15;;;;;;;;;;5943046;23;20042;-57
2021/10/19 13:41:41;;;;;;;21.42;9.98;;;;;;;;;;6015740;23;20111;-56
2021/10/19 13:44:07;;;;;;;18.33;9.93;;;;;;;;;;5991619;23;20034;-55
2021/10/19 13:46:34;;;;;;;22.80;10.88;;;;;;;;;;5966606;24;20038;-57
2021/10/19 13:49:01;;;;;;;25.88;11.05;;;;;;;;;;5969856;24;20171;-57
2021/10/19 13:51:27;;;;;;;22.25;10.95;;;;;;;;;;5991262;23;20030;-56
2021/10/19 13:53:59;;;;;;;23.65;11.25;;;;;;;;;;5996675;23;20127;-56
2021/10/19 13:56:27;;;;;;;28.45;10.65;;;;;;;;;;5953516;24;20033;-56
2021/10/19 13:58:54;;;;;;;26.05;9.68;;;;;;;;;;5969460;24;20062;-58
2021/10/19 14:01:20;;;;;;;20.67;9.75;;;;;;;;;;5967361;24;20026;-57
2021/10/19 14:03:47;;;;;;;21.70;8.18;;;;;;;;;;5971172;24;20041;-56
2021/10/19 14:06:16;;;;;;;26.35;9.40;;;;;;;;;;5967766;24;20037;-56
2021/10/19 14:08:43;;;;;;;20.98;8.73;;;;;;;;;;5993393;23;20124;-57
2021/10/19 14:11:11;;;;;;;21.95;9.07;;;;;;;;;;5966854;24;20037;-57
2021/10/19 14:13:38;;;;;;;26.00;8.83;;;;;;;;;;5970636;23;20316;-57
2021/10/19 14:16:06;;;;;;;19.40;8.70;;;;;;;;;;5963306;24;20287;-57
2021/10/19 14:18:33;;;;;;;21.65;9.02;;;;;;;;;;5995712;23;20042;-57
2021/10/19 14:21:00;;;;;;;15.52;8.05;;;;;;;;;;5965912;23;20042;-56
2021/10/19 14:23:26;;;;;;;21.35;8.88;;;;;;;;;;5970466;24;20238;-56
2021/10/19 14:25:53;;;;;;;20.55;9.55;;;;;;;;;;5965963;23;20033;-57
2021/10/19 14:28:21;;;;;;;23.17;9.35;;;;;;;;;;5970014;24;20029;-57
2021/10/19 14:30:49;;;;;;;19.73;10.10;;;;;;;;;;5970794;24;20096;-57
2021/10/19 14:33:15;;;;;;;17.38;8.90;;;;;;;;;;5992175;23;20088;-57